sensor_id;sensor_type;location;lat;lon;timestamp;pressure;altitude;pressure_sealevel;temperature;humidity
11395;BME280;5753;54.402;10.220;2023-07-31T00:00:51;100767.94;;;24.15;53.91
11395;BME280;5753;54.402;10.220;2023-07-31T00:03:17;100758.34;;;23.47;54.89
11395;BME280;5753;54.402;10.220;2023-07-31T00:05:43;100753.59;;;24.22;53.56
11395;BME280;5753;54.402;10.220;2023-07-31T00:08:11;100761.25;;;24.48;52.42
11395;BME280;5753;54.402;10.220;2023-07-31T00:10:37;100755.63;;;24.15;53.46
11395;BME280;5753;54.402;10.220;2023-07-31T00:13:03;100749.53;;;24.35;53.27
11395;BME280;5753;54.402;10.220;2023-07-31T00:15:29;100732.94;;;24.33;52.86
11395;BME280;5753;54.402;10.220;2023-07-31T00:17:55;100731.00;;;23.74;54.16
11395;BME280;5753;54.402;10.220;2023-07-31T00:20:21;100720.53;;;24.15;53.35
11395;BME280;5753;54.402;10.220;2023-07-31T00:22:47;100720.53;;;24.15;53.55
11395;BME280;5753;54.402;10.220;2023-07-31T00:25:13;100718.63;;;23.76;54.75
11395;BME280;5753;54.402;10.220;2023-07-31T00:27:39;100728.75;;;22.95;57.38
11395;BME280;5753;54.402;10.220;2023-07-31T00:30:10;100724.69;;;23.33;56.68
11395;BME280;5753;54.402;10.220;2023-07-31T00:32:36;100744.41;;;24.32;54.34
11395;BME280;5753;54.402;10.220;2023-07-31T00:35:03;100732.66;;;23.97;54.71
11395;BME280;5753;54.402;10.220;2023-07-31T00:37:29;100729.81;;;23.81;55.07
11395;BME280;5753;54.402;10.220;2023-07-31T00:39:55;100729.81;;;24.24;54.44
11395;BME280;5753;54.402;10.220;2023-07-31T00:42:21;100721.53;;;23.91;54.60
11395;BME280;5753;54.402;10.220;2023-07-31T00:44:47;100731.22;;;24.53;52.72
11395;BME280;5753;54.402;10.220;2023-07-31T00:47:13;100729.09;;;23.54;55.78
11395;BME280;5753;54.402;10.220;2023-07-31T00:49:39;100728.13;;;24.01;54.53
11395;BME280;5753;54.402;10.220;2023-07-31T00:52:06;100725.22;;;23.65;55.44
11395;BME280;5753;54.402;10.220;2023-07-31T00:54:32;100722.19;;;24.17;53.47
11395;BME280;5753;54.402;10.220;2023-07-31T00:56:59;100720.06;;;22.93;57.93
11395;BME280;5753;54.402;10.220;2023-07-31T00:59:25;100704.75;;;23.28;56.64
11395;BME280;5753;54.402;10.220;2023-07-31T01:01:51;100715.31;;;23.03;57.39
11395;BME280;5753;54.402;10.220;2023-07-31T01:04:18;100703.25;;;23.88;54.77
11395;BME280;5753;54.402;10.220;2023-07-31T01:07:49;100695.94;;;23.94;53.49
11395;BME280;5753;54.402;10.220;2023-07-31T01:09:44;100704.16;;;24.07;53.78
11395;BME280;5753;54.402;10.220;2023-07-31T01:12:14;100694.88;;;24.40;52.67
11395;BME280;5753;54.402;10.220;2023-07-31T01:14:40;100687.09;;;23.75;53.87
11395;BME280;5753;54.402;10.220;2023-07-31T01:17:06;100693.94;;;24.21;52.60
11395;BME280;5753;54.402;10.220;2023-07-31T01:19:33;100696.44;;;25.23;49.97
11395;BME280;5753;54.402;10.220;2023-07-31T01:27:35;100683.22;;;23.83;53.10
11395;BME280;5753;54.402;10.220;2023-07-31T01:30:33;100676.75;;;24.33;51.18
11395;BME280;5753;54.402;10.220;2023-07-31T01:33:02;100670.16;;;24.82;49.96
11395;BME280;5753;54.402;10.220;2023-07-31T01:35:33;100668.94;;;25.09;49.38
11395;BME280;5753;54.402;10.220;2023-07-31T01:38:00;100663.84;;;24.27;51.03
11395;BME280;5753;54.402;10.220;2023-07-31T01:40:26;100667.75;;;23.96;51.09
11395;BME280;5753;54.402;10.220;2023-07-31T01:42:52;100654.13;;;23.66;52.34
11395;BME280;5753;54.402;10.220;2023-07-31T01:45:18;100662.31;;;24.21;51.37
11395;BME280;5753;54.402;10.220;2023-07-31T01:47:44;100677.19;;;24.02;50.67
11395;BME280;5753;54.402;10.220;2023-07-31T01:50:11;100675.84;;;24.12;50.66
11395;BME280;5753;54.402;10.220;2023-07-31T01:52:37;100663.75;;;24.08;50.25
11395;BME280;5753;54.402;10.220;2023-07-31T01:55:03;100656.78;;;23.65;51.92
11395;BME280;5753;54.402;10.220;2023-07-31T01:57:29;100654.69;;;23.51;52.49
11395;BME280;5753;54.402;10.220;2023-07-31T01:59:55;100655.19;;;24.03;51.70
11395;BME280;5753;54.402;10.220;2023-07-31T02:02:22;100650.06;;;24.20;50.43
11395;BME280;5753;54.402;10.220;2023-07-31T02:04:49;100646.66;;;23.55;52.50
11395;BME280;5753;54.402;10.220;2023-07-31T02:07:15;100650.25;;;23.95;51.50
11395;BME280;5753;54.402;10.220;2023-07-31T02:09:41;100646.31;;;23.63;51.84
11395;BME280;5753;54.402;10.220;2023-07-31T02:12:08;100643.47;;;23.69;52.42
11395;BME280;5753;54.402;10.220;2023-07-31T02:14:34;100632.72;;;24.55;49.99
11395;BME280;5753;54.402;10.220;2023-07-31T02:17:01;100632.06;;;23.47;52.41
11395;BME280;5753;54.402;10.220;2023-07-31T02:19:27;100631.28;;;24.07;51.14
11395;BME280;5753;54.402;10.220;2023-07-31T02:21:53;100636.34;;;24.12;50.54
11395;BME280;5753;54.402;10.220;2023-07-31T02:24:19;100628.06;;;24.41;50.33
11395;BME280;5753;54.402;10.220;2023-07-31T02:26:45;100621.56;;;24.69;49.66
11395;BME280;5753;54.402;10.220;2023-07-31T02:29:11;100623.09;;;24.54;50.00
11395;BME280;5753;54.402;10.220;2023-07-31T02:31:37;100615.81;;;24.00;51.23
11395;BME280;5753;54.402;10.220;2023-07-31T02:34:03;100607.00;;;24.41;50.29
11395;BME280;5753;54.402;10.220;2023-07-31T02:36:29;100606.50;;;24.90;49.13
11395;BME280;5753;54.402;10.220;2023-07-31T02:38:55;100604.31;;;24.62;49.82
11395;BME280;5753;54.402;10.220;2023-07-31T02:41:21;100602.66;;;24.59;50.37
11395;BME280;5753;54.402;10.220;2023-07-31T02:43:47;100595.88;;;24.54;50.20
11395;BME280;5753;54.402;10.220;2023-07-31T02:46:13;100604.13;;;22.77;54.89
11395;BME280;5753;54.402;10.220;2023-07-31T02:48:39;100601.19;;;23.30;54.32
11395;BME280;5753;54.402;10.220;2023-07-31T02:51:05;100603.19;;;23.67;53.39
11395;BME280;5753;54.402;10.220;2023-07-31T02:53:32;100597.38;;;23.15;54.80
11395;BME280;5753;54.402;10.220;2023-07-31T02:55:58;100607.00;;;24.41;51.60
11395;BME280;5753;54.402;10.220;2023-07-31T02:58:24;100606.13;;;23.38;53.89
11395;BME280;5753;54.402;10.220;2023-07-31T03:00:50;100599.38;;;23.52;54.17
11395;BME280;5753;54.402;10.220;2023-07-31T03:03:16;100596.44;;;23.82;53.90
11395;BME280;5753;54.402;10.220;2023-07-31T03:05:42;100598.31;;;23.99;53.18
11395;BME280;5753;54.402;10.220;2023-07-31T03:08:08;100597.66;;;24.14;52.61
11395;BME280;5753;54.402;10.220;2023-07-31T03:10:34;100600.59;;;23.23;56.04
11395;BME280;5753;54.402;10.220;2023-07-31T03:13:00;100591.63;;;23.92;54.01
11395;BME280;5753;54.402;10.220;2023-07-31T03:15:26;100589.84;;;23.50;55.32
11395;BME280;5753;54.402;10.220;2023-07-31T03:17:52;100599.88;;;23.62;54.51
11395;BME280;5753;54.402;10.220;2023-07-31T03:20:18;100598.47;;;22.88;57.21
11395;BME280;5753;54.402;10.220;2023-07-31T03:22:44;100591.81;;;23.67;55.13
11395;BME280;5753;54.402;10.220;2023-07-31T03:25:10;100581.53;;;23.39;56.06
11395;BME280;5753;54.402;10.220;2023-07-31T03:27:36;100578.88;;;22.97;56.98
11395;BME280;5753;54.402;10.220;2023-07-31T03:30:03;100579.13;;;22.19;59.79
11395;BME280;5753;54.402;10.220;2023-07-31T03:32:29;100579.41;;;22.83;58.07
11395;BME280;5753;54.402;10.220;2023-07-31T03:34:55;100572.25;;;23.08;56.68
11395;BME280;5753;54.402;10.220;2023-07-31T03:37:21;100570.16;;;24.01;54.59
11395;BME280;5753;54.402;10.220;2023-07-31T03:39:47;100572.22;;;23.52;55.40
11395;BME280;5753;54.402;10.220;2023-07-31T03:42:13;100562.50;;;24.15;54.04
11395;BME280;5753;54.402;10.220;2023-07-31T03:44:40;100564.31;;;23.10;56.87
11395;BME280;5753;54.402;10.220;2023-07-31T03:47:06;100569.00;;;23.67;55.35
11395;BME280;5753;54.402;10.220;2023-07-31T03:49:32;100566.97;;;24.33;54.20
11395;BME280;5753;54.402;10.220;2023-07-31T03:51:58;100575.53;;;23.57;55.86
11395;BME280;5753;54.402;10.220;2023-07-31T03:54:24;100575.53;;;23.57;56.60
11395;BME280;5753;54.402;10.220;2023-07-31T03:56:51;100571.03;;;23.17;58.60
11395;BME280;5753;54.402;10.220;2023-07-31T03:59:17;100571.78;;;23.20;58.79
11395;BME280;5753;54.402;10.220;2023-07-31T04:01:43;100567.44;;;23.19;58.44
11395;BME280;5753;54.402;10.220;2023-07-31T04:04:09;100554.72;;;24.32;55.25
11395;BME280;5753;54.402;10.220;2023-07-31T04:06:35;100563.00;;;24.43;55.04
11395;BME280;5753;54.402;10.220;2023-07-31T04:09:02;100557.28;;;24.53;54.72
11395;BME280;5753;54.402;10.220;2023-07-31T04:11:28;100560.19;;;25.22;52.74
11395;BME280;5753;54.402;10.220;2023-07-31T04:13:55;100564.41;;;24.51;55.26
11395;BME280;5753;54.402;10.220;2023-07-31T04:16:21;100571.50;;;25.24;53.09
11395;BME280;5753;54.402;10.220;2023-07-31T04:18:47;100566.03;;;22.89;60.61
11395;BME280;5753;54.402;10.220;2023-07-31T04:21:13;100560.00;;;24.32;56.74
11395;BME280;5753;54.402;10.220;2023-07-31T04:23:39;100563.72;;;24.66;54.77
11395;BME280;5753;54.402;10.220;2023-07-31T04:26:05;100556.22;;;23.14;61.28
11395;BME280;5753;54.402;10.220;2023-07-31T04:28:31;100559.94;;;24.53;56.76
11395;BME280;5753;54.402;10.220;2023-07-31T04:30:57;100546.31;;;24.80;55.38
11395;BME280;5753;54.402;10.220;2023-07-31T04:33:24;100558.69;;;24.22;57.70
11395;BME280;5753;54.402;10.220;2023-07-31T04:35:51;100555.56;;;23.51;60.22
11395;BME280;5753;54.402;10.220;2023-07-31T04:38:18;100545.50;;;24.22;57.20
11395;BME280;5753;54.402;10.220;2023-07-31T04:40:45;100547.31;;;24.59;56.78
11395;BME280;5753;54.402;10.220;2023-07-31T04:43:11;100541.03;;;24.80;55.67
11395;BME280;5753;54.402;10.220;2023-07-31T04:45:37;100551.69;;;24.21;58.60
11395;BME280;5753;54.402;10.220;2023-07-31T04:48:03;100544.81;;;25.30;54.75
11395;BME280;5753;54.402;10.220;2023-07-31T04:50:29;100555.16;;;23.82;59.20
11395;BME280;5753;54.402;10.220;2023-07-31T04:52:56;100553.84;;;23.72;60.51
11395;BME280;5753;54.402;10.220;2023-07-31T04:55:22;100552.88;;;24.34;58.10
11395;BME280;5753;54.402;10.220;2023-07-31T04:57:48;100552.94;;;24.33;58.88
11395;BME280;5753;54.402;10.220;2023-07-31T05:00:14;100548.91;;;24.63;56.95
11395;BME280;5753;54.402;10.220;2023-07-31T05:02:40;100551.94;;;25.28;55.74
11395;BME280;5753;54.402;10.220;2023-07-31T05:05:07;100548.56;;;24.13;59.24
11395;BME280;5753;54.402;10.220;2023-07-31T05:07:33;100553.00;;;25.06;56.20
11395;BME280;5753;54.402;10.220;2023-07-31T05:09:59;100552.84;;;25.63;54.88
11395;BME280;5753;54.402;10.220;2023-07-31T05:12:25;100543.00;;;26.32;52.85
11395;BME280;5753;54.402;10.220;2023-07-31T05:14:51;100541.31;;;25.47;55.23
11395;BME280;5753;54.402;10.220;2023-07-31T05:17:17;100544.50;;;26.05;53.61
11395;BME280;5753;54.402;10.220;2023-07-31T05:19:43;100540.94;;;25.89;53.60
11395;BME280;5753;54.402;10.220;2023-07-31T05:22:09;100533.78;;;25.22;55.45
11395;BME280;5753;54.402;10.220;2023-07-31T05:24:35;100530.41;;;25.71;54.41
11395;BME280;5753;54.402;10.220;2023-07-31T05:27:01;100530.84;;;25.28;55.71
11395;BME280;5753;54.402;10.220;2023-07-31T05:29:27;100527.59;;;25.57;54.73
11395;BME280;5753;54.402;10.220;2023-07-31T05:31:53;100524.84;;;24.88;56.44
11395;BME280;5753;54.402;10.220;2023-07-31T05:34:19;100515.44;;;25.01;57.09
11395;BME280;5753;54.402;10.220;2023-07-31T05:36:45;100518.84;;;24.48;58.17
11395;BME280;5753;54.402;10.220;2023-07-31T05:39:11;100507.56;;;25.36;56.82
11395;BME280;5753;54.402;10.220;2023-07-31T05:41:38;100502.06;;;25.75;55.27
11395;BME280;5753;54.402;10.220;2023-07-31T05:44:04;100494.44;;;25.34;57.05
11395;BME280;5753;54.402;10.220;2023-07-31T05:46:30;100493.28;;;25.75;56.21
11395;BME280;5753;54.402;10.220;2023-07-31T05:48:57;100497.63;;;25.24;57.63
11395;BME280;5753;54.402;10.220;2023-07-31T05:51:23;100497.22;;;25.49;57.45
11395;BME280;5753;54.402;10.220;2023-07-31T05:53:49;100486.56;;;24.43;60.33
11395;BME280;5753;54.402;10.220;2023-07-31T05:56:15;100491.66;;;24.84;58.24
11395;BME280;5753;54.402;10.220;2023-07-31T05:58:41;100482.44;;;25.12;58.03
11395;BME280;5753;54.402;10.220;2023-07-31T06:01:07;100489.84;;;25.03;59.18
11395;BME280;5753;54.402;10.220;2023-07-31T06:03:33;100484.75;;;25.69;57.07
11395;BME280;5753;54.402;10.220;2023-07-31T06:05:59;100475.94;;;25.86;56.54
11395;BME280;5753;54.402;10.220;2023-07-31T06:08:25;100475.25;;;25.48;56.62
11395;BME280;5753;54.402;10.220;2023-07-31T06:10:51;100467.34;;;25.65;56.58
11395;BME280;5753;54.402;10.220;2023-07-31T06:13:17;100481.19;;;25.36;58.29
11395;BME280;5753;54.402;10.220;2023-07-31T06:15:43;100471.31;;;25.74;57.15
11395;BME280;5753;54.402;10.220;2023-07-31T06:18:09;100473.50;;;24.78;60.00
11395;BME280;5753;54.402;10.220;2023-07-31T06:20:36;100482.38;;;24.94;59.67
11395;BME280;5753;54.402;10.220;2023-07-31T06:23:02;100475.22;;;24.79;59.01
11395;BME280;5753;54.402;10.220;2023-07-31T06:25:29;100472.41;;;26.03;55.69
11395;BME280;5753;54.402;10.220;2023-07-31T06:27:56;100475.59;;;25.25;58.15
11395;BME280;5753;54.402;10.220;2023-07-31T06:30:22;100479.19;;;23.94;62.89
11395;BME280;5753;54.402;10.220;2023-07-31T06:32:48;100474.50;;;24.75;60.43
11395;BME280;5753;54.402;10.220;2023-07-31T06:35:14;100474.97;;;25.54;58.36
11395;BME280;5753;54.402;10.220;2023-07-31T06:37:40;100483.63;;;26.71;53.49
11395;BME280;5753;54.402;10.220;2023-07-31T06:40:09;100471.69;;;26.48;54.43
11395;BME280;5753;54.402;10.220;2023-07-31T06:42:36;100468.38;;;25.96;55.53
11395;BME280;5753;54.402;10.220;2023-07-31T06:45:02;100473.63;;;26.45;54.56
11395;BME280;5753;54.402;10.220;2023-07-31T06:47:29;100475.19;;;26.00;55.31
11395;BME280;5753;54.402;10.220;2023-07-31T06:49:55;100475.81;;;25.72;56.62
11395;BME280;5753;54.402;10.220;2023-07-31T06:52:21;100480.16;;;24.68;59.45
11395;BME280;5753;54.402;10.220;2023-07-31T06:55:16;100478.63;;;25.34;58.26
11395;BME280;5753;54.402;10.220;2023-07-31T06:57:46;100482.28;;;25.66;57.36
11395;BME280;5753;54.402;10.220;2023-07-31T07:00:13;100479.03;;;25.09;59.38
11395;BME280;5753;54.402;10.220;2023-07-31T07:02:39;100488.78;;;25.25;57.56
11395;BME280;5753;54.402;10.220;2023-07-31T07:05:06;100481.88;;;24.86;60.26
11395;BME280;5753;54.402;10.220;2023-07-31T07:07:32;100474.03;;;25.38;58.68
11395;BME280;5753;54.402;10.220;2023-07-31T07:09:58;100471.91;;;26.12;56.85
11395;BME280;5753;54.402;10.220;2023-07-31T07:12:31;100469.47;;;24.88;60.82
11395;BME280;5753;54.402;10.220;2023-07-31T07:14:57;100471.53;;;25.52;58.09
11395;BME280;5753;54.402;10.220;2023-07-31T07:17:24;100466.56;;;25.81;58.08
11395;BME280;5753;54.402;10.220;2023-07-31T07:19:51;100475.91;;;25.70;57.36
11395;BME280;5753;54.402;10.220;2023-07-31T07:22:17;100466.22;;;24.83;59.15
11395;BME280;5753;54.402;10.220;2023-07-31T07:24:43;100473.59;;;25.30;58.79
11395;BME280;5753;54.402;10.220;2023-07-31T07:27:09;100465.69;;;25.13;59.69
11395;BME280;5753;54.402;10.220;2023-07-31T07:29:37;100467.03;;;26.04;57.70
11395;BME280;5753;54.402;10.220;2023-07-31T07:32:03;100447.06;;;24.62;60.70
11395;BME280;5753;54.402;10.220;2023-07-31T07:34:30;100466.03;;;25.57;58.34
11395;BME280;5753;54.402;10.220;2023-07-31T07:36:56;100454.34;;;26.11;56.40
11395;BME280;5753;54.402;10.220;2023-07-31T07:39:22;100467.00;;;26.53;54.78
11395;BME280;5753;54.402;10.220;2023-07-31T07:41:48;100460.50;;;26.27;55.93
11395;BME280;5753;54.402;10.220;2023-07-31T07:44:14;100467.19;;;25.51;57.47
11395;BME280;5753;54.402;10.220;2023-07-31T07:46:41;100462.53;;;25.04;58.71
11395;BME280;5753;54.402;10.220;2023-07-31T07:49:07;100451.91;;;25.75;57.17
11395;BME280;5753;54.402;10.220;2023-07-31T07:51:33;100456.41;;;25.04;58.99
11395;BME280;5753;54.402;10.220;2023-07-31T07:53:59;100456.16;;;25.78;57.81
11395;BME280;5753;54.402;10.220;2023-07-31T07:56:26;100453.25;;;25.66;57.33
11395;BME280;5753;54.402;10.220;2023-07-31T07:58:53;100453.09;;;25.00;59.67
11395;BME280;5753;54.402;10.220;2023-07-31T08:01:20;100447.28;;;26.27;56.32
11395;BME280;5753;54.402;10.220;2023-07-31T08:03:46;100455.34;;;25.93;55.75
11395;BME280;5753;54.402;10.220;2023-07-31T08:06:12;100450.97;;;25.92;56.11
11395;BME280;5753;54.402;10.220;2023-07-31T08:08:39;100450.53;;;25.84;55.99
11395;BME280;5753;54.402;10.220;2023-07-31T08:11:05;100453.63;;;25.92;55.70
11395;BME280;5753;54.402;10.220;2023-07-31T08:13:32;100459.19;;;26.03;55.43
11395;BME280;5753;54.402;10.220;2023-07-31T08:15:58;100444.00;;;25.40;56.59
11395;BME280;5753;54.402;10.220;2023-07-31T08:18:24;100446.25;;;26.14;55.54
11395;BME280;5753;54.402;10.220;2023-07-31T08:20:50;100446.19;;;26.93;53.37
11395;BME280;5753;54.402;10.220;2023-07-31T08:23:16;100448.72;;;26.80;53.50
11395;BME280;5753;54.402;10.220;2023-07-31T08:25:42;100440.03;;;26.47;54.81
11395;BME280;5753;54.402;10.220;2023-07-31T08:28:08;100436.06;;;27.01;52.79
11395;BME280;5753;54.402;10.220;2023-07-31T08:30:34;100430.41;;;27.51;50.94
11395;BME280;5753;54.402;10.220;2023-07-31T08:33:01;100437.63;;;27.78;50.56
11395;BME280;5753;54.402;10.220;2023-07-31T08:35:27;100438.09;;;27.12;51.51
11395;BME280;5753;54.402;10.220;2023-07-31T08:37:56;100444.34;;;27.39;51.10
11395;BME280;5753;54.402;10.220;2023-07-31T08:40:22;100440.38;;;27.18;52.51
11395;BME280;5753;54.402;10.220;2023-07-31T08:42:51;100442.94;;;26.26;54.23
11395;BME280;5753;54.402;10.220;2023-07-31T08:45:19;100442.34;;;25.72;55.57
11395;BME280;5753;54.402;10.220;2023-07-31T08:47:49;100448.75;;;26.49;53.71
11395;BME280;5753;54.402;10.220;2023-07-31T08:50:18;100451.34;;;26.80;52.40
11395;BME280;5753;54.402;10.220;2023-07-31T08:52:48;100442.34;;;25.72;55.18
11395;BME280;5753;54.402;10.220;2023-07-31T08:55:14;100449.09;;;25.94;55.29
11395;BME280;5753;54.402;10.220;2023-07-31T08:57:42;100455.59;;;26.53;53.90
11395;BME280;5753;54.402;10.220;2023-07-31T09:00:10;100455.25;;;26.59;52.95
11395;BME280;5753;54.402;10.220;2023-07-31T09:02:45;100449.75;;;26.30;52.92
11395;BME280;5753;54.402;10.220;2023-07-31T09:05:12;100449.19;;;25.42;55.12
11395;BME280;5753;54.402;10.220;2023-07-31T09:07:38;100451.31;;;26.66;51.88
11395;BME280;5753;54.402;10.220;2023-07-31T09:10:05;100448.94;;;27.51;50.11
11395;BME280;5753;54.402;10.220;2023-07-31T09:12:32;100441.53;;;26.82;51.34
11395;BME280;5753;54.402;10.220;2023-07-31T09:14:59;100448.91;;;26.46;52.22
11395;BME280;5753;54.402;10.220;2023-07-31T09:17:33;100446.59;;;26.24;51.89
11395;BME280;5753;54.402;10.220;2023-07-31T09:20:16;100445.66;;;26.72;51.75
11395;BME280;5753;54.402;10.220;2023-07-31T09:22:44;100435.13;;;25.76;53.84
11395;BME280;5753;54.402;10.220;2023-07-31T09:25:31;100444.19;;;26.82;51.47
11395;BME280;5753;54.402;10.220;2023-07-31T09:28:02;100436.31;;;25.86;53.52
11395;BME280;5753;54.402;10.220;2023-07-31T09:30:29;100434.44;;;26.53;52.40
11395;BME280;5753;54.402;10.220;2023-07-31T09:33:02;100423.66;;;26.24;52.94
11395;BME280;5753;54.402;10.220;2023-07-31T09:35:31;100420.56;;;25.85;53.90
11395;BME280;5753;54.402;10.220;2023-07-31T09:37:59;100420.31;;;25.56;53.66
11395;BME280;5753;54.402;10.220;2023-07-31T09:40:58;100408.19;;;25.52;55.29
11395;BME280;5753;54.402;10.220;2023-07-31T09:43:24;100403.88;;;26.31;54.04
11395;BME280;5753;54.402;10.220;2023-07-31T09:45:57;100398.19;;;27.01;51.27
11395;BME280;5753;54.402;10.220;2023-07-31T09:48:24;100404.06;;;26.44;52.80
11395;BME280;5753;54.402;10.220;2023-07-31T09:50:53;100398.41;;;27.26;51.59
11395;BME280;5753;54.402;10.220;2023-07-31T09:53:28;100407.69;;;26.73;51.93
11395;BME280;5753;54.402;10.220;2023-07-31T09:56:00;100411.69;;;27.54;50.37
11395;BME280;5753;54.402;10.220;2023-07-31T09:58:29;100423.50;;;27.49;50.81
11395;BME280;5753;54.402;10.220;2023-07-31T10:00:58;100429.47;;;26.92;52.00
11395;BME280;5753;54.402;10.220;2023-07-31T10:03:25;100422.63;;;27.34;50.79
11395;BME280;5753;54.402;10.220;2023-07-31T10:05:53;100420.31;;;27.14;51.88
11395;BME280;5753;54.402;10.220;2023-07-31T10:08:23;100419.00;;;27.07;51.81
11395;BME280;5753;54.402;10.220;2023-07-31T10:10:55;100410.94;;;27.52;50.89
11395;BME280;5753;54.402;10.220;2023-07-31T10:13:24;100419.63;;;27.54;50.60
11395;BME280;5753;54.402;10.220;2023-07-31T10:15:51;100411.03;;;27.94;49.93
11395;BME280;5753;54.402;10.220;2023-07-31T10:18:18;100416.38;;;27.21;51.61
11395;BME280;5753;54.402;10.220;2023-07-31T10:20:46;100411.25;;;27.04;51.17
11395;BME280;5753;54.402;10.220;2023-07-31T10:23:13;100438.44;;;27.06;51.92
11395;BME280;5753;54.402;10.220;2023-07-31T10:25:40;100420.69;;;27.08;51.48
11395;BME280;5753;54.402;10.220;2023-07-31T10:28:08;100417.34;;;27.48;51.29
11395;BME280;5753;54.402;10.220;2023-07-31T10:30:35;100420.69;;;26.92;52.48
11395;BME280;5753;54.402;10.220;2023-07-31T10:33:04;100416.81;;;27.72;50.48
11395;BME280;5753;54.402;10.220;2023-07-31T10:35:31;100426.06;;;27.50;50.92
11395;BME280;5753;54.402;10.220;2023-07-31T10:38:12;100426.22;;;27.33;51.93
11395;BME280;5753;54.402;10.220;2023-07-31T10:40:39;100423.19;;;26.33;54.01
11395;BME280;5753;54.402;10.220;2023-07-31T10:43:06;100413.94;;;26.72;53.03
11395;BME280;5753;54.402;10.220;2023-07-31T10:45:35;100412.09;;;28.32;49.98
11395;BME280;5753;54.402;10.220;2023-07-31T10:48:14;100407.47;;;28.63;49.42
11395;BME280;5753;54.402;10.220;2023-07-31T10:50:48;100405.78;;;29.14;47.81
11395;BME280;5753;54.402;10.220;2023-07-31T10:53:32;100392.81;;;28.97;48.27
11395;BME280;5753;54.402;10.220;2023-07-31T10:56:02;100397.50;;;27.98;49.92
11395;BME280;5753;54.402;10.220;2023-07-31T10:58:30;100392.00;;;27.87;50.66
11395;BME280;5753;54.402;10.220;2023-07-31T11:01:02;100392.22;;;27.70;50.74
11395;BME280;5753;54.402;10.220;2023-07-31T11:03:46;100395.78;;;27.40;51.41
11395;BME280;5753;54.402;10.220;2023-07-31T11:06:19;100398.78;;;26.90;52.36
11395;BME280;5753;54.402;10.220;2023-07-31T11:08:49;100402.38;;;26.59;54.58
11395;BME280;5753;54.402;10.220;2023-07-31T11:11:28;100399.16;;;28.13;51.13
11395;BME280;5753;54.402;10.220;2023-07-31T11:13:54;100391.47;;;27.68;51.86
11395;BME280;5753;54.402;10.220;2023-07-31T11:16:23;100410.78;;;26.95;53.51
11395;BME280;5753;54.402;10.220;2023-07-31T11:18:53;100394.19;;;27.80;51.96
11395;BME280;5753;54.402;10.220;2023-07-31T11:21:21;100387.91;;;26.94;52.44
11395;BME280;5753;54.402;10.220;2023-07-31T11:23:49;100385.31;;;27.53;52.62
11395;BME280;5753;54.402;10.220;2023-07-31T11:26:17;100389.84;;;27.94;51.52
11395;BME280;5753;54.402;10.220;2023-07-31T11:28:46;100397.25;;;28.30;51.09
11395;BME280;5753;54.402;10.220;2023-07-31T11:31:12;100382.84;;;27.93;52.24
11395;BME280;5753;54.402;10.220;2023-07-31T11:33:38;100384.06;;;27.87;52.56
11395;BME280;5753;54.402;10.220;2023-07-31T11:36:04;100375.31;;;28.13;51.35
11395;BME280;5753;54.402;10.220;2023-07-31T11:38:32;100369.41;;;27.53;52.42
11395;BME280;5753;54.402;10.220;2023-07-31T11:41:03;100369.69;;;27.48;52.56
11395;BME280;5753;54.402;10.220;2023-07-31T11:43:31;100363.47;;;27.49;51.61
11395;BME280;5753;54.402;10.220;2023-07-31T11:45:58;100359.47;;;26.84;53.42
11395;BME280;5753;54.402;10.220;2023-07-31T11:48:29;100356.66;;;26.25;55.32
11395;BME280;5753;54.402;10.220;2023-07-31T11:51:01;100345.59;;;26.94;53.77
11395;BME280;5753;54.402;10.220;2023-07-31T11:53:37;100345.56;;;26.80;53.71
11395;BME280;5753;54.402;10.220;2023-07-31T11:56:04;100344.44;;;26.84;54.25
11395;BME280;5753;54.402;10.220;2023-07-31T11:58:33;100355.03;;;27.28;54.06
11395;BME280;5753;54.402;10.220;2023-07-31T12:01:00;100359.09;;;27.06;53.81
11395;BME280;5753;54.402;10.220;2023-07-31T12:03:26;100360.31;;;27.00;53.16
11395;BME280;5753;54.402;10.220;2023-07-31T12:05:55;100359.84;;;27.08;53.11
11395;BME280;5753;54.402;10.220;2023-07-31T12:08:23;100354.28;;;27.12;52.40
11395;BME280;5753;54.402;10.220;2023-07-31T12:10:53;100352.69;;;27.52;51.82
11395;BME280;5753;54.402;10.220;2023-07-31T12:15:47;100353.69;;;26.77;54.04
11395;BME280;5753;54.402;10.220;2023-07-31T12:18:18;100359.16;;;28.04;51.60
11395;BME280;5753;54.402;10.220;2023-07-31T12:20:53;100352.50;;;27.70;51.54
11395;BME280;5753;54.402;10.220;2023-07-31T12:23:22;100355.09;;;27.98;51.44
11395;BME280;5753;54.402;10.220;2023-07-31T12:26:14;100351.41;;;26.71;54.52
11395;BME280;5753;54.402;10.220;2023-07-31T12:28:47;100348.03;;;28.26;51.15
11395;BME280;5753;54.402;10.220;2023-07-31T12:31:20;100348.97;;;27.83;51.47
11395;BME280;5753;54.402;10.220;2023-07-31T12:33:49;100361.31;;;26.67;52.99
11395;BME280;5753;54.402;10.220;2023-07-31T12:36:18;100348.69;;;27.31;51.77
11395;BME280;5753;54.402;10.220;2023-07-31T12:38:45;100347.47;;;26.92;51.85
11395;BME280;5753;54.402;10.220;2023-07-31T12:41:11;100340.47;;;27.07;52.08
11395;BME280;5753;54.402;10.220;2023-07-31T12:43:39;100345.25;;;26.41;53.78
11395;BME280;5753;54.402;10.220;2023-07-31T12:46:06;100335.91;;;27.95;50.73
11395;BME280;5753;54.402;10.220;2023-07-31T12:48:39;100335.81;;;27.96;51.42
11395;BME280;5753;54.402;10.220;2023-07-31T12:51:06;100336.47;;;28.00;51.10
11395;BME280;5753;54.402;10.220;2023-07-31T12:53:33;100341.69;;;27.30;52.04
11395;BME280;5753;54.402;10.220;2023-07-31T12:55:59;100345.16;;;26.42;54.04
11395;BME280;5753;54.402;10.220;2023-07-31T12:58:25;100340.31;;;25.71;56.94
11395;BME280;5753;54.402;10.220;2023-07-31T13:00:51;100339.72;;;26.75;54.21